LFHP

Le Puy-Loudes Airport

Airport
ICAO code
LFHP
IATA Code
LPY
Summary
ICAO Region
EUR
ICAO Territory
Location

, Auvergne

Serving
Le Puy
Elevation
2731 ft
Coordinates
45° 4' 50" N , 3° 45' 46" E
Metar
Observation
LFHP 061600Z AUTO 06006KT 9999 OVC024 01/M02 Q1029
Station
Le Puy
Date/Time
2023-02-06 16:00:00
Wind direction
60°
Wind speed
06 kts
Lowest cloud amount
overcast
Temperature
1°C
Dew point
-2°C
Humidity
80%
QNH
1029 hPa
Weather condition
n/a

Runways

Designator Length Width Surface Rops
15R/33L 767 58 GRS No/No
15/33 1445 30 ASP No/No

Airport map

Aerial View

SKYbrary Partners:

Safety knowledge contributed by: